Lambourn, United Kingdom
Current Conditions -  °F | °C
As of 3:13 AM on Tuesday 21 Oct 2014 (Local Time) from EGVA Reporting Station
Overcast Overcast  
Wind Chill: 55°   Ceiling: 3700
Heat Index: 55°   Visibility: 6mi
Dew Point: 50°   Wind: 16mph
Humidity: 82%   Direction: 220°SW
Pressure: 29.66"   Gusts: 25mph
Location:  51.51°N, 1.53°W
Report Text: EGVA 210213Z AUTO 22014G22KT 9999 SCT022 SCT027 OVC037 13/10 A2966 RMK AO2 PRESFR
Loading
Personal Weather Stations






























Interactive Weather Map
Tropical Storm Tracking
New forecast layout! Learn more

10-Day Weather Forecast

Advertisements
Track Severe Weather on mobile